WetterOnline ( https://www.wetteronline.de )

Wetter aktuell Wünschendorf

Aktuelles Wetter: Gera/Leumnitz (311m)

6-stündlich | Neueste Meldungen
Ortszeit Temperatur Wetter
Sa, 20.04. 2:00 4.6° C Sprühregen
Fr, 19.04. 20:00 5.0° C leichter Regen
Fr, 19.04. 14:00 4.4° C leichter Regen
Fr, 19.04. 8:00 4.9° C bewölkt
Fr, 19.04. 2:00 4.0° C bedeckt
Do, 18.04. 20:00 7.5° C bewölkt
Do, 18.04. 14:00 8.2° C leicht bewölkt
Do, 18.04. 8:00 3.8° C leichter Regen
Ortszeit Temperatur Wetter
Sa, 20.04. 3:30 3.7° C leichter Regen
Sa, 20.04. 3:20 3.7° C leichter Regen
Sa, 20.04. 3:10 4.0° C leichter Regen
Sa, 20.04. 3:00 4.3° C leichter Regen
Sa, 20.04. 2:50 4.3° C leichter Regen
Sa, 20.04. 2:40 4.4° C leichter Regen
Sa, 20.04. 2:30 4.8° C leichter Regen
Sa, 20.04. 2:00 4.6° C Sprühregen
Sa, 20.04. 1:30 4.5° C leichter Regen
Sa, 20.04. 1:00 4.3° C leichter Regen
Sa, 20.04. 0:30 4.4° C Sprühregen
Ortszeit Relative Feuchte Sichtweite
Sa, 20.04. 2:00 90% 30 km
Fr, 19.04. 20:00 89% 26 km
Fr, 19.04. 14:00 91% 15 km
Fr, 19.04. 8:00 77% 40 km
Fr, 19.04. 2:00 83% 45 km
Do, 18.04. 20:00 51% >70 km
Do, 18.04. 14:00 46% >70 km
Do, 18.04. 8:00 89% 11 km
Ortszeit Relative Feuchte Sichtweite
Sa, 20.04. 3:30 91% 14 km
Sa, 20.04. 3:20 91% -
Sa, 20.04. 3:10 93% -
Sa, 20.04. 3:00 91% 30 km
Sa, 20.04. 2:50 91% -
Sa, 20.04. 2:40 90% -
Sa, 20.04. 2:30 88% 30 km
Sa, 20.04. 2:00 90% 30 km
Sa, 20.04. 1:30 91% 45 km
Sa, 20.04. 1:00 93% 17 km
Sa, 20.04. 0:30 91% 35 km
Ortszeit Niederschlagsmenge Niederschlagsart
Sa, 20.04. 2:00 0.8 l/m2 in 6 Std. Regen
Fr, 19.04. 20:00 2 l/m2 in 12 Std. Regen
Fr, 19.04. 14:00 2 l/m2 in 6 Std. Regen
Fr, 19.04. 8:00 2 l/m2 in 12 Std. Regen
Fr, 19.04. 2:00 2 l/m2 in 6 Std. Regen
Do, 18.04. 20:00 0.1 l/m2 in 12 Std. -
Do, 18.04. 14:00 0.1 l/m2 in 6 Std. Regen
Do, 18.04. 8:00 0.2 l/m2 in 12 Std. Regen
Ortszeit Niederschlagsmenge Niederschlagsart
Sa, 20.04. 3:30 0.4 l/m2 in 30 Min -
Sa, 20.04. 3:20 keine Meldung -
Sa, 20.04. 3:10 keine Meldung -
Sa, 20.04. 3:00 0.1 l/m2 in 1 Std. Regen
Sa, 20.04. 2:50 keine Meldung -
Sa, 20.04. 2:40 keine Meldung -
Sa, 20.04. 2:30 <0.05 l/m2 in 30 Min -
Sa, 20.04. 2:00 0.1 l/m2 in 1 Std. Regen
Sa, 20.04. 1:30 0.1 l/m2 in 30 Min -
Sa, 20.04. 1:00 0.3 l/m2 in 1 Std. Regen
Sa, 20.04. 0:30 <0.05 l/m2 in 30 Min -
Ortszeit Stärke Spitze Richtung
km/h Bft. km/h Grad Sektor
Sa, 20.04. 2:00 19 3 31 280° W
Fr, 19.04. 20:00 13 3 46 230° SW
Fr, 19.04. 14:00 22 4 54 240° SW
Fr, 19.04. 8:00 22 4 29 230° SW
Fr, 19.04. 2:00 11 2 36 260° W
Do, 18.04. 20:00 2 1 31 40° NO
Do, 18.04. 14:00 17 3 31 340° N
Do, 18.04. 8:00 7 2 14 30° NO
Ortszeit Stärke Spitze Richtung
km/h Bft. km/h Grad Sektor
Sa, 20.04. 3:30 22 4 43 310° NW
Sa, 20.04. 3:20 22 4 - 310° NW
Sa, 20.04. 3:10 20 4 - 300° NW
Sa, 20.04. 3:00 22 4 35 290° W
Sa, 20.04. 2:50 22 4 - 290° W
Sa, 20.04. 2:40 22 4 - 290° W
Sa, 20.04. 2:30 22 4 33 290° W
Sa, 20.04. 2:00 19 3 31 280° W
Sa, 20.04. 1:30 20 4 31 280° W
Sa, 20.04. 1:00 18 3 32 270° W
Sa, 20.04. 0:30 18 3 29 260° W
Ortszeit Untergrenze Bedeckung Gattung
total tief tief mittel hoch
Sa, 20.04. 2:00 300 m 6/8 6/8 - - -
Fr, 19.04. 20:00 660 m 7/8 7/8 - - -
Fr, 19.04. 14:00 330 m 7/8 7/8 - - -
Fr, 19.04. 8:00 2100 m 7/8 7/8 - - -
Fr, 19.04. 2:00 1800 m 8/8 8/8 - - -
Do, 18.04. 20:00 5700 m 8/8 7/8 - - -
Do, 18.04. 14:00 1500 m 4/8 4/8 - - -
Do, 18.04. 8:00 720 m 3/8 3/8 - - -
Ortszeit Bedeckungsgrad in Achtel und Wolkenuntergrenze
Sa, 20.04. 3:30 7(240m)
Sa, 20.04. 3:20 7(240m)
Sa, 20.04. 3:10 7
Sa, 20.04. 3:00 6(300m) 7(540m)
Sa, 20.04. 2:50 6(300m) 7(540m)
Sa, 20.04. 2:40 7
Sa, 20.04. 2:30 2(330m) 3(540m)
Sa, 20.04. 2:00 5(300m) 6(540m)
Sa, 20.04. 1:30 7(300m)
Sa, 20.04. 1:00 5(270m) 7(510m)
Sa, 20.04. 0:30 6(570m)
Ortszeit Luftdruck NN (hPa) Tendenz (hPa in 3 Std.)
Sa, 20.04. 2:00 1005 + 0,3
Fr, 19.04. 20:00 1004 - 0,5
Fr, 19.04. 14:00 1006 - 1,8
Fr, 19.04. 8:00 1011 - 2,7
Fr, 19.04. 2:00 1017 - 1,2
Do, 18.04. 20:00 1017 + 0,2
Do, 18.04. 14:00 1016 + 0,5
Do, 18.04. 8:00 1014 + 1,8
Ortszeit Luftdruck NN (hPa) Tendenz (hPa in 3 Std.)
Sa, 20.04. 3:30 1006 + 0,8
Sa, 20.04. 3:20 1006 keine Meldung
Sa, 20.04. 3:10 1006 keine Meldung
Sa, 20.04. 3:00 1006 + 0,5
Sa, 20.04. 2:50 1006 keine Meldung
Sa, 20.04. 2:40 1005 keine Meldung
Sa, 20.04. 2:30 1005 + 0,2
Sa, 20.04. 2:00 1005 + 0,3
Sa, 20.04. 1:30 1005 + 0,5
Sa, 20.04. 1:00 1005 + 0,4
Sa, 20.04. 0:30 1005 + 0,5
Ortszeit Schneehöhe (cm)
Sa, 20.04. 2:00 0
Fr, 19.04. 20:00 0
Fr, 19.04. 14:00 0
Fr, 19.04. 8:00 0
Fr, 19.04. 2:00 0
Do, 18.04. 20:00 0
Do, 18.04. 14:00 0
Do, 18.04. 8:00 0
Ortszeit Schneehöhe (cm)
Sa, 20.04. 3:30 0
Sa, 20.04. 3:20 0
Sa, 20.04. 3:10 -
Sa, 20.04. 3:00 0
Sa, 20.04. 2:50 0
Sa, 20.04. 2:40 -
Sa, 20.04. 2:30 0
Sa, 20.04. 2:00 0
Sa, 20.04. 1:30 0
Sa, 20.04. 1:00 0
Sa, 20.04. 0:30 0
Link zu dieser Seite / Seite empfehlen

Das Wetter in ...